sensor_id;sensor_type;location;lat;lon;timestamp;pressure;altitude;pressure_sealevel;temperature;humidity
78990;BME280;68390;52.130;21.218;2024-02-23T00:01:03;98575.44;;;7.25;87.82
78990;BME280;68390;52.130;21.218;2024-02-23T00:03:28;98580.72;;;7.26;88.46
78990;BME280;68390;52.130;21.218;2024-02-23T00:05:54;98572.72;;;7.25;87.95
78990;BME280;68390;52.130;21.218;2024-02-23T00:08:19;98576.94;;;7.27;88.44
78990;BME280;68390;52.130;21.218;2024-02-23T00:10:44;98568.13;;;7.25;88.02
78990;BME280;68390;52.130;21.218;2024-02-23T00:13:10;98556.97;;;7.27;88.22
78990;BME280;68390;52.130;21.218;2024-02-23T00:15:35;98558.41;;;7.23;88.32
78990;BME280;68390;52.130;21.218;2024-02-23T00:18:01;98570.84;;;7.25;88.24
78990;BME280;68390;52.130;21.218;2024-02-23T00:20:28;98550.03;;;7.24;88.17
78990;BME280;68390;52.130;21.218;2024-02-23T00:22:54;98566.00;;;7.27;88.38
78990;BME280;68390;52.130;21.218;2024-02-23T00:25:19;98550.03;;;7.24;88.51
78990;BME280;68390;52.130;21.218;2024-02-23T00:27:44;98558.66;;;7.28;88.36
78990;BME280;68390;52.130;21.218;2024-02-23T00:30:12;98553.19;;;7.28;87.95
78990;BME280;68390;52.130;21.218;2024-02-23T00:32:38;98558.03;;;7.26;88.26
78990;BME280;68390;52.130;21.218;2024-02-23T00:35:04;98553.16;;;7.21;88.38
78990;BME280;68390;52.130;21.218;2024-02-23T00:37:29;98557.19;;;7.25;88.48
78990;BME280;68390;52.130;21.218;2024-02-23T00:40:02;98545.81;;;7.22;89.15
78990;BME280;68390;52.130;21.218;2024-02-23T00:42:29;98544.78;;;7.23;88.18
78990;BME280;68390;52.130;21.218;2024-02-23T00:44:55;98552.78;;;7.24;88.66
78990;BME280;68390;52.130;21.218;2024-02-23T00:47:20;98551.72;;;7.25;88.11
78990;BME280;68390;52.130;21.218;2024-02-23T00:49:45;98556.78;;;7.28;88.53
78990;BME280;68390;52.130;21.218;2024-02-23T00:52:11;98549.63;;;7.27;89.09
78990;BME280;68390;52.130;21.218;2024-02-23T00:54:36;98553.00;;;7.29;88.09
78990;BME280;68390;52.130;21.218;2024-02-23T00:57:02;98543.78;;;7.30;88.11
78990;BME280;68390;52.130;21.218;2024-02-23T00:59:27;98541.06;;;7.30;89.06
78990;BME280;68390;52.130;21.218;2024-02-23T01:01:54;98534.75;;;7.30;88.68
78990;BME280;68390;52.130;21.218;2024-02-23T01:04:19;98524.03;;;7.28;88.16
78990;BME280;68390;52.130;21.218;2024-02-23T01:06:44;98533.53;;;7.32;89.20
78990;BME280;68390;52.130;21.218;2024-02-23T01:09:10;98520.44;;;7.28;89.00
78990;BME280;68390;52.130;21.218;2024-02-23T01:11:35;98523.81;;;7.30;88.75
78990;BME280;68390;52.130;21.218;2024-02-23T01:14:01;98519.03;;;7.32;89.21
78990;BME280;68390;52.130;21.218;2024-02-23T01:16:26;98519.03;;;7.32;89.40
78990;BME280;68390;52.130;21.218;2024-02-23T01:18:51;98499.22;;;7.23;89.34
78990;BME280;68390;52.130;21.218;2024-02-23T01:21:17;98505.75;;;7.29;89.36
78990;BME280;68390;52.130;21.218;2024-02-23T01:23:42;98518.38;;;7.30;89.80
78990;BME280;68390;52.130;21.218;2024-02-23T01:26:07;98515.63;;;7.30;89.34
78990;BME280;68390;52.130;21.218;2024-02-23T01:28:33;98511.22;;;7.29;89.66
78990;BME280;68390;52.130;21.218;2024-02-23T01:30:58;98494.59;;;7.24;89.84
78990;BME280;68390;52.130;21.218;2024-02-23T01:33:24;98500.09;;;7.30;90.29
78990;BME280;68390;52.130;21.218;2024-02-23T01:35:50;98502.19;;;7.28;89.57
78990;BME280;68390;52.130;21.218;2024-02-23T01:38:16;98493.38;;;7.26;89.95
78990;BME280;68390;52.130;21.218;2024-02-23T01:40:46;98493.13;;;7.28;90.38
78990;BME280;68390;52.130;21.218;2024-02-23T01:43:12;98494.59;;;7.24;90.86
78990;BME280;68390;52.130;21.218;2024-02-23T01:45:37;98490.16;;;7.23;90.66
78990;BME280;68390;52.130;21.218;2024-02-23T01:48:03;98493.38;;;7.26;90.40
78990;BME280;68390;52.130;21.218;2024-02-23T01:50:29;98495.88;;;7.28;90.84
78990;BME280;68390;52.130;21.218;2024-02-23T01:53:00;98499.25;;;7.30;91.07
78990;BME280;68390;52.130;21.218;2024-02-23T01:55:26;98500.94;;;7.31;90.90
78990;BME280;68390;52.130;21.218;2024-02-23T01:57:52;98499.91;;;7.32;91.08
78990;BME280;68390;52.130;21.218;2024-02-23T02:00:19;98501.41;;;7.34;91.22
78990;BME280;68390;52.130;21.218;2024-02-23T02:02:47;98495.09;;;7.34;90.52
78990;BME280;68390;52.130;21.218;2024-02-23T02:05:13;98497.44;;;7.37;91.25
78990;BME280;68390;52.130;21.218;2024-02-23T02:07:40;98499.97;;;7.38;91.12
78990;BME280;68390;52.130;21.218;2024-02-23T02:10:08;98497.88;;;7.41;91.24
78990;BME280;68390;52.130;21.218;2024-02-23T02:12:34;98492.03;;;7.44;90.64
78990;BME280;68390;52.130;21.218;2024-02-23T02:15:03;98499.84;;;7.47;90.62
78990;BME280;68390;52.130;21.218;2024-02-23T02:17:30;98479.66;;;7.48;91.45
78990;BME280;68390;52.130;21.218;2024-02-23T02:19:58;98487.66;;;7.49;90.60
78990;BME280;68390;52.130;21.218;2024-02-23T02:22:24;98487.28;;;7.52;91.04
78990;BME280;68390;52.130;21.218;2024-02-23T02:24:49;98483.88;;;7.50;90.59
78990;BME280;68390;52.130;21.218;2024-02-23T02:27:15;98478.44;;;7.50;91.22
78990;BME280;68390;52.130;21.218;2024-02-23T02:29:41;98477.66;;;7.56;90.54
78990;BME280;68390;52.130;21.218;2024-02-23T02:32:06;98477.47;;;7.58;90.44
78990;BME280;68390;52.130;21.218;2024-02-23T02:34:32;98473.41;;;7.54;91.29
78990;BME280;68390;52.130;21.218;2024-02-23T02:37:00;98479.53;;;7.56;90.74
78990;BME280;68390;52.130;21.218;2024-02-23T02:39:27;98468.81;;;7.54;90.58
78990;BME280;68390;52.130;21.218;2024-02-23T02:41:53;98469.66;;;7.55;91.41
78990;BME280;68390;52.130;21.218;2024-02-23T02:44:19;98466.47;;;7.51;91.53
78990;BME280;68390;52.130;21.218;2024-02-23T02:46:44;98463.34;;;7.54;90.69
78990;BME280;68390;52.130;21.218;2024-02-23T02:49:11;98474.31;;;7.61;90.79
78990;BME280;68390;52.130;21.218;2024-02-23T02:51:37;98475.63;;;7.65;91.69
78990;BME280;68390;52.130;21.218;2024-02-23T02:54:03;98482.13;;;7.64;91.62
78990;BME280;68390;52.130;21.218;2024-02-23T02:56:28;98480.69;;;7.68;91.10
78990;BME280;68390;52.130;21.218;2024-02-23T02:58:54;98467.16;;;7.60;91.44
78990;BME280;68390;52.130;21.218;2024-02-23T03:01:20;98479.38;;;7.64;92.42
78990;BME280;68390;52.130;21.218;2024-02-23T03:03:45;98479.38;;;7.64;92.83
78990;BME280;68390;52.130;21.218;2024-02-23T03:06:11;98478.72;;;7.62;93.05
78990;BME280;68390;52.130;21.218;2024-02-23T03:08:36;98469.25;;;7.58;92.68
78990;BME280;68390;52.130;21.218;2024-02-23T03:11:03;98483.53;;;7.60;93.90
78990;BME280;68390;52.130;21.218;2024-02-23T03:13:28;98477.69;;;7.63;92.59
78990;BME280;68390;52.130;21.218;2024-02-23T03:15:54;98478.78;;;7.68;93.29
78990;BME280;68390;52.130;21.218;2024-02-23T03:18:23;98486.56;;;7.71;92.77
78990;BME280;68390;52.130;21.218;2024-02-23T03:20:51;98485.06;;;7.69;92.80
78990;BME280;68390;52.130;21.218;2024-02-23T03:23:18;98479.84;;;7.67;93.77
78990;BME280;68390;52.130;21.218;2024-02-23T03:25:44;98488.47;;;7.71;94.28
78990;BME280;68390;52.130;21.218;2024-02-23T03:28:10;98497.06;;;7.68;96.87
78990;BME280;68390;52.130;21.218;2024-02-23T03:30:35;98487.13;;;7.60;98.00
78990;BME280;68390;52.130;21.218;2024-02-23T03:33:04;98501.19;;;7.57;99.29
78990;BME280;68390;52.130;21.218;2024-02-23T03:35:30;98504.88;;;7.50;100.00
78990;BME280;68390;52.130;21.218;2024-02-23T03:37:56;98514.06;;;7.42;100.00
78990;BME280;68390;52.130;21.218;2024-02-23T03:40:23;98507.31;;;7.38;100.00
78990;BME280;68390;52.130;21.218;2024-02-23T03:42:49;98514.03;;;7.35;100.00
78990;BME280;68390;52.130;21.218;2024-02-23T03:45:15;98507.63;;;7.28;100.00
78990;BME280;68390;52.130;21.218;2024-02-23T03:47:41;98507.13;;;7.18;100.00
78990;BME280;68390;52.130;21.218;2024-02-23T03:50:07;98515.72;;;7.15;100.00
78990;BME280;68390;52.130;21.218;2024-02-23T03:52:33;98511.69;;;7.11;100.00
78990;BME280;68390;52.130;21.218;2024-02-23T03:55:00;98511.22;;;7.08;100.00
78990;BME280;68390;52.130;21.218;2024-02-23T03:57:26;98513.50;;;7.04;100.00
78990;BME280;68390;52.130;21.218;2024-02-23T03:59:53;98525.66;;;7.02;100.00
78990;BME280;68390;52.130;21.218;2024-02-23T04:02:19;98509.84;;;6.97;100.00
78990;BME280;68390;52.130;21.218;2024-02-23T04:04:44;98525.38;;;6.96;100.00
78990;BME280;68390;52.130;21.218;2024-02-23T04:07:10;98524.28;;;6.91;100.00
78990;BME280;68390;52.130;21.218;2024-02-23T04:09:36;98527.38;;;6.88;100.00
78990;BME280;68390;52.130;21.218;2024-02-23T04:12:01;98526.72;;;6.86;100.00
78990;BME280;68390;52.130;21.218;2024-02-23T04:14:27;98532.19;;;6.86;100.00
78990;BME280;68390;52.130;21.218;2024-02-23T04:16:53;98528.16;;;6.82;100.00
78990;BME280;68390;52.130;21.218;2024-02-23T04:19:22;98520.34;;;6.79;100.00
78990;BME280;68390;52.130;21.218;2024-02-23T04:21:47;98532.59;;;6.83;100.00
78990;BME280;68390;52.130;21.218;2024-02-23T04:24:13;98520.72;;;6.76;100.00
78990;BME280;68390;52.130;21.218;2024-02-23T04:26:38;98540.28;;;6.79;100.00
78990;BME280;68390;52.130;21.218;2024-02-23T04:29:04;98529.75;;;6.76;100.00
78990;BME280;68390;52.130;21.218;2024-02-23T04:31:29;98540.47;;;6.78;100.00
78990;BME280;68390;52.130;21.218;2024-02-23T04:33:55;98545.28;;;6.76;100.00
78990;BME280;68390;52.130;21.218;2024-02-23T04:36:20;98549.06;;;6.75;100.00
78990;BME280;68390;52.130;21.218;2024-02-23T04:38:49;98540.41;;;6.71;100.00
78990;BME280;68390;52.130;21.218;2024-02-23T04:41:20;98551.13;;;6.73;100.00
78990;BME280;68390;52.130;21.218;2024-02-23T04:43:47;98554.06;;;6.71;100.00
78990;BME280;68390;52.130;21.218;2024-02-23T04:46:13;98546.06;;;6.70;100.00
78990;BME280;68390;52.130;21.218;2024-02-23T04:48:39;98535.91;;;6.63;100.00
78990;BME280;68390;52.130;21.218;2024-02-23T04:51:07;98547.69;;;6.64;100.00
78990;BME280;68390;52.130;21.218;2024-02-23T04:53:36;98559.69;;;6.70;100.00
78990;BME280;68390;52.130;21.218;2024-02-23T04:56:04;98561.09;;;6.66;100.00
78990;BME280;68390;52.130;21.218;2024-02-23T04:58:30;98555.75;;;6.57;100.00
78990;BME280;68390;52.130;21.218;2024-02-23T05:00:56;98560.84;;;6.60;100.00
78990;BME280;68390;52.130;21.218;2024-02-23T05:03:21;98567.31;;;6.59;100.00
78990;BME280;68390;52.130;21.218;2024-02-23T05:05:48;98558.22;;;6.52;100.00
78990;BME280;68390;52.130;21.218;2024-02-23T05:08:22;98558.47;;;6.57;100.00
78990;BME280;68390;52.130;21.218;2024-02-23T05:10:50;98570.81;;;6.53;100.00
78990;BME280;68390;52.130;21.218;2024-02-23T05:13:17;98573.81;;;6.58;100.00
78990;BME280;68390;52.130;21.218;2024-02-23T05:15:42;98582.00;;;6.58;100.00
78990;BME280;68390;52.130;21.218;2024-02-23T05:18:08;98568.09;;;6.53;100.00
78990;BME280;68390;52.130;21.218;2024-02-23T05:20:33;98577.38;;;6.59;100.00
78990;BME280;68390;52.130;21.218;2024-02-23T05:22:59;98582.00;;;6.58;100.00
78990;BME280;68390;52.130;21.218;2024-02-23T05:25:25;98590.16;;;6.58;100.00
78990;BME280;68390;52.130;21.218;2024-02-23T05:27:54;98595.63;;;6.58;100.00
78990;BME280;68390;52.130;21.218;2024-02-23T05:30:20;98600.91;;;6.60;100.00
78990;BME280;68390;52.130;21.218;2024-02-23T05:32:46;98603.16;;;6.56;100.00
78990;BME280;68390;52.130;21.218;2024-02-23T05:35:13;98606.53;;;6.58;100.00
78990;BME280;68390;52.130;21.218;2024-02-23T05:37:40;98605.88;;;6.56;100.00
78990;BME280;68390;52.130;21.218;2024-02-23T05:40:06;98611.31;;;6.56;100.00
78990;BME280;68390;52.130;21.218;2024-02-23T05:42:36;98611.72;;;6.53;100.00
78990;BME280;68390;52.130;21.218;2024-02-23T05:45:02;98618.03;;;6.54;100.00
78990;BME280;68390;52.130;21.218;2024-02-23T05:47:31;98612.94;;;6.51;100.00
78990;BME280;68390;52.130;21.218;2024-02-23T05:49:57;98628.53;;;6.57;100.00
78990;BME280;68390;52.130;21.218;2024-02-23T05:52:23;98619.91;;;6.53;100.00
78990;BME280;68390;52.130;21.218;2024-02-23T05:54:49;98630.59;;;6.55;100.00
78990;BME280;68390;52.130;21.218;2024-02-23T05:57:14;98623.47;;;6.54;100.00
78990;BME280;68390;52.130;21.218;2024-02-23T05:59:40;98629.38;;;6.57;100.00
78990;BME280;68390;52.130;21.218;2024-02-23T06:02:06;98622.41;;;6.55;100.00
78990;BME280;68390;52.130;21.218;2024-02-23T06:04:32;98639.00;;;6.53;100.00
78990;BME280;68390;52.130;21.218;2024-02-23T06:06:58;98641.13;;;6.58;100.00
78990;BME280;68390;52.130;21.218;2024-02-23T06:09:24;98639.84;;;6.54;100.00
78990;BME280;68390;52.130;21.218;2024-02-23T06:11:50;98644.72;;;6.58;100.00
78990;BME280;68390;52.130;21.218;2024-02-23T06:14:16;98647.25;;;6.60;100.00
78990;BME280;68390;52.130;21.218;2024-02-23T06:16:42;98653.56;;;6.60;100.00
78990;BME280;68390;52.130;21.218;2024-02-23T06:19:08;98648.28;;;6.59;100.00
78990;BME280;68390;52.130;21.218;2024-02-23T06:21:34;98649.31;;;6.58;100.00
78990;BME280;68390;52.130;21.218;2024-02-23T06:24:00;98659.19;;;6.59;100.00
78990;BME280;68390;52.130;21.218;2024-02-23T06:26:26;98667.47;;;6.66;100.00
78990;BME280;68390;52.130;21.218;2024-02-23T06:28:51;98655.06;;;6.63;100.00
78990;BME280;68390;52.130;21.218;2024-02-23T06:31:17;98659.69;;;6.62;100.00
78990;BME280;68390;52.130;21.218;2024-02-23T06:33:43;98667.69;;;6.64;100.00
78990;BME280;68390;52.130;21.218;2024-02-23T06:36:09;98678.09;;;6.60;100.00
78990;BME280;68390;52.130;21.218;2024-02-23T06:38:35;98680.06;;;6.67;100.00
78990;BME280;68390;52.130;21.218;2024-02-23T06:41:01;98675.28;;;6.69;100.00
78990;BME280;68390;52.130;21.218;2024-02-23T06:43:27;98678.00;;;6.69;100.00
78990;BME280;68390;52.130;21.218;2024-02-23T06:45:53;98686.19;;;6.69;100.00
78990;BME280;68390;52.130;21.218;2024-02-23T06:48:20;98678.66;;;6.71;100.00
78990;BME280;68390;52.130;21.218;2024-02-23T06:50:46;98680.38;;;6.72;100.00
78990;BME280;68390;52.130;21.218;2024-02-23T06:53:12;98690.44;;;6.71;100.00
78990;BME280;68390;52.130;21.218;2024-02-23T06:55:38;98686.50;;;6.74;100.00
78990;BME280;68390;52.130;21.218;2024-02-23T06:58:04;98692.41;;;6.77;100.00
78990;BME280;68390;52.130;21.218;2024-02-23T07:00:34;98687.78;;;6.78;100.00
78990;BME280;68390;52.130;21.218;2024-02-23T07:03:02;98708.56;;;6.79;100.00
78990;BME280;68390;52.130;21.218;2024-02-23T07:05:35;98707.28;;;6.75;100.00
78990;BME280;68390;52.130;21.218;2024-02-23T07:08:02;98716.41;;;6.82;100.00
78990;BME280;68390;52.130;21.218;2024-02-23T07:10:29;98699.38;;;6.80;100.00
78990;BME280;68390;52.130;21.218;2024-02-23T07:12:55;98698.34;;;6.81;100.00
78990;BME280;68390;52.130;21.218;2024-02-23T07:15:22;98721.19;;;6.80;100.00
78990;BME280;68390;52.130;21.218;2024-02-23T07:17:49;98716.41;;;6.82;100.00
78990;BME280;68390;52.130;21.218;2024-02-23T07:20:15;98716.41;;;6.82;100.00
78990;BME280;68390;52.130;21.218;2024-02-23T07:22:45;98713.38;;;6.77;100.00
78990;BME280;68390;52.130;21.218;2024-02-23T07:25:17;98731.25;;;6.79;100.00
78990;BME280;68390;52.130;21.218;2024-02-23T07:27:43;98743.94;;;6.87;100.00
78990;BME280;68390;52.130;21.218;2024-02-23T07:30:10;98732.19;;;6.86;100.00
78990;BME280;68390;52.130;21.218;2024-02-23T07:32:35;98730.88;;;6.82;100.00
78990;BME280;68390;52.130;21.218;2024-02-23T07:35:01;98733.69;;;6.89;100.00
78990;BME280;68390;52.130;21.218;2024-02-23T07:37:26;98746.97;;;6.92;100.00
78990;BME280;68390;52.130;21.218;2024-02-23T07:39:52;98737.66;;;6.86;100.00
78990;BME280;68390;52.130;21.218;2024-02-23T07:42:18;98748.00;;;6.91;100.00
78990;BME280;68390;52.130;21.218;2024-02-23T07:44:44;98746.31;;;6.90;100.00
78990;BME280;68390;52.130;21.218;2024-02-23T07:47:10;98761.91;;;6.96;100.00
78990;BME280;68390;52.130;21.218;2024-02-23T07:49:36;98753.72;;;6.96;100.00
78990;BME280;68390;52.130;21.218;2024-02-23T07:52:02;98754.03;;;7.01;100.00
78990;BME280;68390;52.130;21.218;2024-02-23T07:54:27;98758.63;;;7.00;100.00
78990;BME280;68390;52.130;21.218;2024-02-23T07:56:53;98764.41;;;7.06;100.00
78990;BME280;68390;52.130;21.218;2024-02-23T07:59:18;98769.00;;;7.05;100.00
78990;BME280;68390;52.130;21.218;2024-02-23T08:01:43;98776.13;;;7.06;100.00
78990;BME280;68390;52.130;21.218;2024-02-23T08:04:09;98776.97;;;7.07;100.00
78990;BME280;68390;52.130;21.218;2024-02-23T08:06:34;98775.78;;;7.09;100.00
78990;BME280;68390;52.130;21.218;2024-02-23T08:09:00;98779.16;;;7.11;100.00
78990;BME280;68390;52.130;21.218;2024-02-23T08:11:25;98786.31;;;7.12;100.00
78990;BME280;68390;52.130;21.218;2024-02-23T08:13:50;98778.78;;;7.14;100.00
78990;BME280;68390;52.130;21.218;2024-02-23T08:16:16;98785.94;;;7.15;100.00
78990;BME280;68390;52.130;21.218;2024-02-23T08:18:42;98793.75;;;7.18;100.00
78990;BME280;68390;52.130;21.218;2024-02-23T08:21:09;98801.94;;;7.18;100.00
78990;BME280;68390;52.130;21.218;2024-02-23T08:23:35;98793.19;;;7.23;100.00
78990;BME280;68390;52.130;21.218;2024-02-23T08:26:01;98801.38;;;7.23;100.00
78990;BME280;68390;52.130;21.218;2024-02-23T08:28:26;98818.03;;;7.28;100.00
78990;BME280;68390;52.130;21.218;2024-02-23T08:30:52;98803.94;;;7.24;100.00
78990;BME280;68390;52.130;21.218;2024-02-23T08:33:18;98801.19;;;7.24;100.00
78990;BME280;68390;52.130;21.218;2024-02-23T08:35:43;98817.19;;;7.27;100.00
78990;BME280;68390;52.130;21.218;2024-02-23T08:38:10;98818.03;;;7.28;100.00
78990;BME280;68390;52.130;21.218;2024-02-23T08:40:35;98830.47;;;7.30;100.00
78990;BME280;68390;52.130;21.218;2024-02-23T08:43:00;98815.78;;;7.31;100.00
78990;BME280;68390;52.130;21.218;2024-02-23T08:45:26;98823.41;;;7.36;100.00
78990;BME280;68390;52.130;21.218;2024-02-23T08:47:51;98827.00;;;7.36;100.00
78990;BME280;68390;52.130;21.218;2024-02-23T08:50:17;98829.16;;;7.41;100.00
78990;BME280;68390;52.130;21.218;2024-02-23T08:52:42;98830.38;;;7.38;100.00
78990;BME280;68390;52.130;21.218;2024-02-23T08:55:08;98835.09;;;7.45;100.00
78990;BME280;68390;52.130;21.218;2024-02-23T08:57:33;98836.38;;;7.49;100.00
78990;BME280;68390;52.130;21.218;2024-02-23T08:59:59;98845.25;;;7.51;100.00
78990;BME280;68390;52.130;21.218;2024-02-23T09:02:24;98840.16;;;7.48;100.00
78990;BME280;68390;52.130;21.218;2024-02-23T09:04:50;98845.91;;;7.53;100.00
78990;BME280;68390;52.130;21.218;2024-02-23T09:07:16;98846.56;;;7.55;100.00
78990;BME280;68390;52.130;21.218;2024-02-23T09:09:43;98841.56;;;7.58;100.00
78990;BME280;68390;52.130;21.218;2024-02-23T09:12:08;98847.03;;;7.58;100.00
78990;BME280;68390;52.130;21.218;2024-02-23T09:14:36;98850.31;;;7.68;100.00
78990;BME280;68390;52.130;21.218;2024-02-23T09:17:03;98851.63;;;7.72;100.00
78990;BME280;68390;52.130;21.218;2024-02-23T09:19:29;98843.19;;;7.67;100.00
78990;BME280;68390;52.130;21.218;2024-02-23T09:21:55;98859.91;;;7.79;100.00
78990;BME280;68390;52.130;21.218;2024-02-23T09:24:20;98850.91;;;7.79;100.00
78990;BME280;68390;52.130;21.218;2024-02-23T09:26:47;98863.41;;;7.88;100.00
78990;BME280;68390;52.130;21.218;2024-02-23T09:29:12;98880.53;;;7.96;100.00
78990;BME280;68390;52.130;21.218;2024-02-23T09:31:38;98871.50;;;7.96;100.00
78990;BME280;68390;52.130;21.218;2024-02-23T09:34:03;98869.69;;;8.03;100.00
78990;BME280;68390;52.130;21.218;2024-02-23T09:36:28;98855.34;;;8.01;100.00
78990;BME280;68390;52.130;21.218;2024-02-23T09:38:55;98865.59;;;8.14;100.00
78990;BME280;68390;52.130;21.218;2024-02-23T09:41:22;98877.47;;;8.21;100.00
78990;BME280;68390;52.130;21.218;2024-02-23T09:43:48;98878.41;;;8.28;100.00
78990;BME280;68390;52.130;21.218;2024-02-23T09:46:18;98883.59;;;8.37;100.00
78990;BME280;68390;52.130;21.218;2024-02-23T09:48:44;98882.16;;;8.41;100.00
78990;BME280;68390;52.130;21.218;2024-02-23T09:51:11;98887.25;;;8.44;100.00
78990;BME280;68390;52.130;21.218;2024-02-23T09:53:38;98886.66;;;8.49;100.00
78990;BME280;68390;52.130;21.218;2024-02-23T09:56:04;98889.00;;;8.52;100.00
78990;BME280;68390;52.130;21.218;2024-02-23T09:58:32;98884.66;;;8.58;100.00
78990;BME280;68390;52.130;21.218;2024-02-23T10:00:58;98896.31;;;8.66;100.00
78990;BME280;68390;52.130;21.218;2024-02-23T10:03:25;98898.66;;;8.69;100.00
78990;BME280;68390;52.130;21.218;2024-02-23T10:05:54;98890.69;;;8.74;100.00
78990;BME280;68390;52.130;21.218;2024-02-23T10:08:19;98892.66;;;8.80;100.00
78990;BME280;68390;52.130;21.218;2024-02-23T10:10:48;98892.66;;;8.80;100.00
78990;BME280;68390;52.130;21.218;2024-02-23T10:13:33;98900.47;;;8.83;100.00
78990;BME280;68390;52.130;21.218;2024-02-23T10:15:59;98909.53;;;8.84;100.00
78990;BME280;68390;52.130;21.218;2024-02-23T10:18:25;98899.44;;;8.84;100.00
78990;BME280;68390;52.130;21.218;2024-02-23T10:20:50;98907.44;;;8.86;100.00
78990;BME280;68390;52.130;21.218;2024-02-23T10:23:17;98896.88;;;8.83;100.00
78990;BME280;68390;52.130;21.218;2024-02-23T10:25:45;98902.34;;;8.83;100.00
78990;BME280;68390;52.130;21.218;2024-02-23T10:28:10;98903.63;;;8.80;100.00
78990;BME280;68390;52.130;21.218;2024-02-23T10:30:37;98919.63;;;8.83;100.00
78990;BME280;68390;52.130;21.218;2024-02-23T10:33:05;98925.06;;;8.77;100.00
78990;BME280;68390;52.130;21.218;2024-02-23T10:35:31;98912.88;;;8.79;100.00
78990;BME280;68390;52.130;21.218;2024-02-23T10:37:57;98913.25;;;8.76;100.00
78990;BME280;68390;52.130;21.218;2024-02-23T10:40:24;98918.72;;;8.76;100.00
78990;BME280;68390;52.130;21.218;2024-02-23T10:42:56;98927.97;;;8.75;100.00
78990;BME280;68390;52.130;21.218;2024-02-23T10:45:22;98929.00;;;8.74;100.00
78990;BME280;68390;52.130;21.218;2024-02-23T10:47:48;98931.31;;;8.71;100.00
78990;BME280;68390;52.130;21.218;2024-02-23T10:50:15;98930.84;;;8.67;100.00
78990;BME280;68390;52.130;21.218;2024-02-23T10:52:44;98937.63;;;8.71;100.00
78990;BME280;68390;52.130;21.218;2024-02-23T10:55:10;98932.91;;;8.65;100.00
78990;BME280;68390;52.130;21.218;2024-02-23T10:57:36;98945.56;;;8.66;100.00
78990;BME280;68390;52.130;21.218;2024-02-23T11:00:03;98948.38;;;8.73;100.00
78990;BME280;68390;52.130;21.218;2024-02-23T11:02:38;98951.09;;;8.73;100.00
78990;BME280;68390;52.130;21.218;2024-02-23T11:05:05;98956.13;;;8.69;100.00
78990;BME280;68390;52.130;21.218;2024-02-23T11:07:38;98956.13;;;8.69;100.00
78990;BME280;68390;52.130;21.218;2024-02-23T11:10:04;98962.47;;;8.70;100.00
78990;BME280;68390;52.130;21.218;2024-02-23T11:12:29;98968.59;;;8.72;100.00
78990;BME280;68390;52.130;21.218;2024-02-23T11:14:59;98963.31;;;8.70;100.00
78990;BME280;68390;52.130;21.218;2024-02-23T11:17:31;98964.16;;;8.71;100.00
78990;BME280;68390;52.130;21.218;2024-02-23T11:19:57;98973.66;;;8.75;100.00
78990;BME280;68390;52.130;21.218;2024-02-23T11:22:32;98986.13;;;8.77;100.00
78990;BME280;68390;52.130;21.218;2024-02-23T11:25:05;98978.94;;;8.76;100.00
78990;BME280;68390;52.130;21.218;2024-02-23T11:27:34;98980.06;;;8.82;100.00
78990;BME280;68390;52.130;21.218;2024-02-23T11:30:04;98986.16;;;8.84;100.00
78990;BME280;68390;52.130;21.218;2024-02-23T11:32:42;98979.66;;;8.85;100.00
78990;BME280;68390;52.130;21.218;2024-02-23T11:35:10;98984.94;;;8.87;100.00
78990;BME280;68390;52.130;21.218;2024-02-23T11:37:45;98994.47;;;8.91;100.00
78990;BME280;68390;52.130;21.218;2024-02-23T11:40:12;98991.75;;;8.91;100.00
78990;BME280;68390;52.130;21.218;2024-02-23T11:42:40;98999.09;;;8.90;100.00
78990;BME280;68390;52.130;21.218;2024-02-23T11:45:06;98995.50;;;8.90;100.00
78990;BME280;68390;52.130;21.218;2024-02-23T11:47:32;98999.94;;;8.91;100.00
78990;BME280;68390;52.130;21.218;2024-02-23T11:49:57;99000.63;;;8.93;100.00
78990;BME280;68390;52.130;21.218;2024-02-23T11:52:22;99008.41;;;8.96;100.00
78990;BME280;68390;52.130;21.218;2024-02-23T11:54:48;99005.50;;;8.97;100.00
78990;BME280;68390;52.130;21.218;2024-02-23T11:57:13;99018.78;;;9.00;100.00
78990;BME280;68390;52.130;21.218;2024-02-23T11:59:40;99013.03;;;8.95;100.00
78990;BME280;68390;52.130;21.218;2024-02-23T12:02:06;99021.72;;;8.99;100.00
78990;BME280;68390;52.130;21.218;2024-02-23T12:04:32;99023.81;;;8.97;100.00
78990;BME280;68390;52.130;21.218;2024-02-23T12:06:58;99023.44;;;9.00;100.00
78990;BME280;68390;52.130;21.218;2024-02-23T12:09:24;99032.94;;;9.04;100.00
78990;BME280;68390;52.130;21.218;2024-02-23T12:11:49;99019.22;;;9.04;100.00
78990;BME280;68390;52.130;21.218;2024-02-23T12:14:15;99028.38;;;9.11;100.00
78990;BME280;68390;52.130;21.218;2024-02-23T12:16:41;99014.59;;;9.04;100.00
78990;BME280;68390;52.130;21.218;2024-02-23T12:19:08;99019.22;;;9.04;100.00
78990;BME280;68390;52.130;21.218;2024-02-23T12:21:34;99028.53;;;9.03;100.00
78990;BME280;68390;52.130;21.218;2024-02-23T12:24:04;99015.22;;;9.00;100.00
78990;BME280;68390;52.130;21.218;2024-02-23T12:26:29;99024.72;;;9.04;100.00
78990;BME280;68390;52.130;21.218;2024-02-23T12:29:00;99035.16;;;9.15;100.00
78990;BME280;68390;52.130;21.218;2024-02-23T12:31:26;99042.34;;;9.16;100.00
78990;BME280;68390;52.130;21.218;2024-02-23T12:33:51;99045.34;;;9.21;100.00
78990;BME280;68390;52.130;21.218;2024-02-23T12:36:17;99047.28;;;9.27;100.00
78990;BME280;68390;52.130;21.218;2024-02-23T12:38:43;99050.88;;;9.28;100.00
78990;BME280;68390;52.130;21.218;2024-02-23T12:41:09;99043.28;;;9.23;100.00
78990;BME280;68390;52.130;21.218;2024-02-23T12:43:34;99041.81;;;9.27;100.00
78990;BME280;68390;52.130;21.218;2024-02-23T12:46:00;99053.06;;;9.32;100.00
78990;BME280;68390;52.130;21.218;2024-02-23T12:48:28;99035.97;;;9.30;100.00